Time;durP1;ratioP1;P1;durP2;ratioP2;P2;SDS_P1;SDS_P2;PMS_P1;PMS_P2;Temp;Humidity;BMP_temperature;BMP_pressure;BME280_temperature;BME280_humidity;BME280_pressure;Samples;Min_cycle;Max_cycle;Signal;HPM_P1;HPM_P2
2022/09/20 00:01:13;;;;;;;16.70;11.18;;;8.50;99.90;;;;;;5072116;28;20031;-81
2022/09/20 00:03:44;;;;;;;16.88;11.30;;;8.40;99.90;;;;;;5072256;28;20016;-82
2022/09/20 00:06:13;;;;;;;41.20;23.40;;;8.50;99.90;;;;;;5072500;28;20058;-81
2022/09/20 00:08:39;;;;;;;23.48;10.68;;;8.40;99.90;;;;;;5072183;28;20485;-82
2022/09/20 00:11:08;;;;;;;15.75;10.60;;;8.40;99.90;;;;;;5073265;28;20021;-83
2022/09/20 00:13:35;;;;;;;19.08;11.38;;;8.50;99.90;;;;;;5072209;28;20021;-83
2022/09/20 00:16:07;;;;;;;14.90;10.75;;;8.40;99.90;;;;;;5071975;28;20394;-82
2022/09/20 00:18:33;;;;;;;20.50;10.93;;;8.40;99.90;;;;;;5073569;28;20433;-82
2022/09/20 00:20:59;;;;;;;20.08;11.52;;;8.40;99.90;;;;;;5071915;28;20386;-82
2022/09/20 00:23:25;;;;;;;16.83;10.70;;;8.40;99.90;;;;;;5073080;28;20035;-82
2022/09/20 00:25:57;;;;;;;16.25;10.68;;;8.50;99.90;;;;;;5072145;28;20024;-82
2022/09/20 00:28:23;;;;;;;17.98;10.88;;;8.50;99.90;;;;;;5073250;28;20029;-82
2022/09/20 00:30:50;;;;;;;22.73;12.85;;;8.50;99.90;;;;;;5073047;28;20051;-81
2022/09/20 00:33:16;;;;;;;16.55;11.25;;;8.50;99.90;;;;;;5073380;28;20382;-82
2022/09/20 00:35:43;;;;;;;17.75;11.20;;;8.50;99.90;;;;;;5072041;28;20020;-82
2022/09/20 00:38:09;;;;;;;20.23;12.88;;;8.40;99.90;;;;;;5073000;28;20029;-82
2022/09/20 00:40:36;;;;;;;20.73;12.82;;;8.40;99.90;;;;;;5072499;28;20032;-81
2022/09/20 00:43:01;;;;;;;22.02;12.95;;;8.40;99.90;;;;;;5091727;28;20073;-82
2022/09/20 00:45:29;;;;;;;15.82;11.57;;;8.40;99.90;;;;;;5072028;28;20432;-82
2022/09/20 00:48:14;;;;;;;17.13;11.00;;;8.40;99.90;;;;;;5071802;28;20150;-82
2022/09/20 00:50:50;;;;;;;16.70;10.88;;;8.50;99.90;;;;;;5071826;28;20020;-83
2022/09/20 00:53:35;;;;;;;24.65;13.02;;;8.40;99.90;;;;;;5072894;28;20020;-82
2022/09/20 00:56:06;;;;;;;16.27;10.82;;;8.50;99.90;;;;;;5071894;28;20025;-81
2022/09/20 00:58:36;;;;;;;17.30;10.95;;;8.50;99.90;;;;;;5073038;28;20115;-83
2022/09/20 01:01:04;;;;;;;13.45;9.73;;;8.50;99.90;;;;;;5071808;28;20028;-83
2022/09/20 01:03:32;;;;;;;14.52;10.38;;;8.40;99.90;;;;;;5072834;28;20052;-83
2022/09/20 01:06:03;;;;;;;15.30;10.07;;;8.50;99.90;;;;;;5073034;28;20359;-83
2022/09/20 01:08:30;;;;;;;14.52;10.02;;;8.50;99.90;;;;;;5071543;28;20031;-83
2022/09/20 01:10:55;;;;;;;14.13;9.85;;;8.50;99.90;;;;;;5071307;28;20024;-82
2022/09/20 01:13:21;;;;;;;15.38;9.85;;;8.50;99.90;;;;;;5071799;28;20016;-82
2022/09/20 01:15:48;;;;;;;14.63;10.25;;;8.50;99.90;;;;;;5071323;28;20123;-82
2022/09/20 01:18:15;;;;;;;19.48;10.52;;;8.50;99.90;;;;;;5071376;28;20020;-82
2022/09/20 01:20:43;;;;;;;16.35;11.75;;;8.50;99.90;;;;;;5071371;28;20024;-84
2022/09/20 01:23:47;;;;;;;13.27;9.90;;;8.50;99.90;;;;;;5071247;28;20021;-83
2022/09/20 01:26:31;;;;;;;14.18;9.15;;;8.50;99.90;;;;;;5071830;28;20093;-82
2022/09/20 01:29:27;;;;;;;13.85;9.65;;;8.50;99.90;;;;;;5071681;28;20389;-82
2022/09/20 01:31:55;;;;;;;12.45;9.23;;;8.50;99.90;;;;;;5072743;28;20062;-82
2022/09/20 01:34:29;;;;;;;11.93;9.48;;;8.40;99.90;;;;;;5072946;28;20032;-82
2022/09/20 01:37:03;;;;;;;14.55;9.45;;;8.40;99.90;;;;;;5072797;28;20078;-82
2022/09/20 01:39:47;;;;;;;11.60;9.20;;;8.40;99.90;;;;;;5074976;28;20082;-83
2022/09/20 01:42:14;;;;;;;11.77;8.45;;;8.40;99.90;;;;;;5089301;28;20482;-83
2022/09/20 01:45:02;;;;;;;11.43;8.82;;;8.40;99.90;;;;;;5081360;28;20031;-82
2022/09/20 01:47:31;;;;;;;13.95;9.27;;;8.40;99.90;;;;;;5074916;28;20017;-82
2022/09/20 01:50:18;;;;;;;12.57;8.77;;;8.40;99.90;;;;;;5074834;28;20024;-82
2022/09/20 01:53:15;;;;;;;9.55;7.70;;;8.40;99.90;;;;;;5074738;28;20479;-82
2022/09/20 01:55:40;;;;;;;10.80;8.30;;;8.40;99.90;;;;;;5074730;28;20099;-82
2022/09/20 01:58:09;;;;;;;11.45;8.25;;;8.40;99.90;;;;;;5076025;28;20054;-83
2022/09/20 02:01:04;;;;;;;9.68;7.97;;;8.40;99.90;;;;;;5074673;28;20063;-82
2022/09/20 02:03:32;;;;;;;10.23;7.78;;;8.30;99.90;;;;;;5074656;28;20024;-83
2022/09/20 02:06:14;;;;;;;10.05;8.10;;;8.40;99.90;;;;;;5075850;28;20031;-83
2022/09/20 02:09:01;;;;;;;12.02;8.55;;;8.40;99.90;;;;;;5074491;28;20052;-82
2022/09/20 02:11:54;;;;;;;11.65;7.70;;;8.40;99.90;;;;;;5074461;28;20111;-81
2022/09/20 02:14:48;;;;;;;11.52;8.02;;;8.40;99.90;;;;;;5074593;28;20363;-81
2022/09/20 02:18:06;;;;;;;10.48;7.97;;;8.40;99.90;;;;;;5074257;28;20056;-82
2022/09/20 02:20:57;;;;;;;10.30;7.75;;;8.50;99.90;;;;;;5041352;28;20117;-82
2022/09/20 02:24:10;;;;;;;10.00;7.82;;;8.40;99.90;;;;;;5074439;28;20017;-82
2022/09/20 02:26:40;;;;;;;10.80;7.70;;;8.40;99.90;;;;;;5016921;28;20029;-82
2022/09/20 02:29:42;;;;;;;9.85;7.72;;;8.40;99.90;;;;;;5016621;28;20029;-82
2022/09/20 02:32:16;;;;;;;11.77;7.68;;;8.40;99.90;;;;;;5058525;28;20372;-83
2022/09/20 02:34:45;;;;;;;10.93;7.53;;;8.40;99.90;;;;;;5073969;28;20124;-82
2022/09/20 02:37:11;;;;;;;11.23;8.20;;;8.40;99.90;;;;;;5074167;28;20425;-82
2022/09/20 02:39:53;;;;;;;11.82;8.30;;;8.40;99.90;;;;;;5075096;28;20040;-82
2022/09/20 02:42:30;;;;;;;12.50;9.00;;;8.40;99.90;;;;;;5089976;28;20020;-81
2022/09/20 02:45:14;;;;;;;10.68;8.50;;;8.40;99.90;;;;;;5078932;28;20033;-81
2022/09/20 02:47:42;;;;;;;9.82;7.68;;;8.40;99.90;;;;;;5073671;28;20036;-81
2022/09/20 02:50:41;;;;;;;14.25;8.90;;;8.40;99.90;;;;;;5074971;28;20025;-80
2022/09/20 02:53:16;;;;;;;9.35;6.95;;;8.40;99.90;;;;;;5073466;28;20113;-82
2022/09/20 02:55:54;;;;;;;8.20;7.20;;;8.40;99.90;;;;;;5081947;28;20024;-83
2022/09/20 02:58:42;;;;;;;11.18;7.30;;;8.40;99.90;;;;;;5073495;28;20381;-82
2022/09/20 03:01:20;;;;;;;10.98;7.55;;;8.40;99.90;;;;;;5073792;28;20025;-81
2022/09/20 03:04:04;;;;;;;9.60;7.78;;;8.40;99.90;;;;;;5073394;28;20430;-83
2022/09/20 03:07:02;;;;;;;10.52;7.50;;;8.40;99.90;;;;;;5074721;28;20023;-83
2022/09/20 03:09:38;;;;;;;9.60;7.03;;;8.40;99.90;;;;;;5077311;28;20411;-84
2022/09/20 03:12:15;;;;;;;8.30;6.45;;;8.40;99.90;;;;;;5073339;28;20020;-82
2022/09/20 03:14:48;;;;;;;9.40;7.13;;;8.40;99.90;;;;;;5073403;28;20021;-82
2022/09/20 03:17:46;;;;;;;10.73;7.45;;;8.40;99.90;;;;;;5073478;28;20029;-82
2022/09/20 03:20:21;;;;;;;7.28;6.50;;;8.40;99.90;;;;;;5074217;28;20025;-82
2022/09/20 03:23:36;;;;;;;8.20;7.03;;;8.40;99.90;;;;;;5072992;28;20060;-82
2022/09/20 03:26:48;;;;;;;8.27;6.45;;;8.40;99.90;;;;;;5074331;28;20389;-82
2022/09/20 03:29:22;;;;;;;8.30;6.55;;;8.40;99.90;;;;;;5074214;28;20029;-82
2022/09/20 03:32:32;;;;;;;7.30;6.43;;;8.30;99.90;;;;;;5072617;28;20135;-83
2022/09/20 03:35:19;;;;;;;7.88;7.07;;;8.30;99.90;;;;;;5072666;28;20056;-82
2022/09/20 03:37:58;;;;;;;7.97;6.43;;;8.30;99.90;;;;;;5073196;28;20031;-83
2022/09/20 03:40:39;;;;;;;7.32;6.57;;;8.30;99.90;;;;;;5073978;28;20029;-82
2022/09/20 03:43:32;;;;;;;7.05;6.35;;;8.30;99.90;;;;;;5094116;28;20032;-82
2022/09/20 03:46:06;;;;;;;8.27;6.72;;;8.30;99.90;;;;;;5083268;28;20030;-82
2022/09/20 03:48:56;;;;;;;7.80;6.72;;;8.30;99.90;;;;;;5094038;28;20113;-83
2022/09/20 03:51:47;;;;;;;7.80;6.20;;;8.30;99.90;;;;;;5093188;28;20028;-82
2022/09/20 03:54:19;;;;;;;8.80;7.13;;;8.20;99.90;;;;;;5092883;28;20386;-83
2022/09/20 03:57:03;;;;;;;8.25;6.70;;;8.20;99.90;;;;;;5092794;28;20066;-82
2022/09/20 04:00:01;;;;;;;8.05;6.57;;;8.20;99.90;;;;;;5092776;28;20036;-82
2022/09/20 04:02:39;;;;;;;7.80;5.63;;;8.20;99.90;;;;;;5092395;28;20083;-83
2022/09/20 04:05:08;;;;;;;6.68;5.95;;;8.20;99.90;;;;;;5094044;28;20038;-82
2022/09/20 04:08:18;;;;;;;7.45;6.55;;;8.20;99.90;;;;;;5093879;28;20020;-82
2022/09/20 04:11:14;;;;;;;6.95;5.93;;;8.20;99.90;;;;;;5093787;28;20082;-84
2022/09/20 04:14:19;;;;;;;7.35;6.65;;;8.20;99.90;;;;;;5092472;28;20107;-83
2022/09/20 04:17:00;;;;;;;8.43;6.10;;;8.20;99.90;;;;;;5093632;28;20020;-82
2022/09/20 04:19:40;;;;;;;8.00;6.22;;;8.30;99.90;;;;;;5092463;28;20036;-81
2022/09/20 04:22:07;;;;;;;7.82;6.63;;;8.30;99.90;;;;;;5092567;28;20016;-83
2022/09/20 04:25:03;;;;;;;11.00;6.68;;;8.30;99.90;;;;;;5093309;28;20020;-82
2022/09/20 04:27:34;;;;;;;10.18;7.40;;;8.30;99.90;;;;;;5063604;28;20032;-82
2022/09/20 04:30:05;;;;;;;9.05;7.07;;;8.30;99.90;;;;;;5092208;28;20016;-82
2022/09/20 04:32:42;;;;;;;8.65;7.72;;;8.30;99.90;;;;;;5092270;28;20040;-83
2022/09/20 04:38:16;;;;;;;48.75;27.02;;;8.30;99.90;;;;;;5093521;28;20035;-83
2022/09/20 04:41:15;;;;;;;55.17;32.55;;;8.30;99.90;;;;;;5089328;28;20040;-83
2022/09/20 04:44:11;;;;;;;34.67;21.70;;;8.30;99.90;;;;;;5078136;28;20024;-82
2022/09/20 04:46:36;;;;;;;21.58;14.80;;;8.30;99.90;;;;;;5093233;28;20081;-82
2022/09/20 04:49:17;;;;;;;15.43;9.85;;;8.30;99.90;;;;;;5091802;28;20024;-83
2022/09/20 04:52:30;;;;;;;9.93;7.63;;;8.30;99.90;;;;;;5091812;28;20563;-83
2022/09/20 04:55:08;;;;;;;12.73;8.53;;;8.30;99.90;;;;;;5081359;28;20532;-83
2022/09/20 04:57:43;;;;;;;11.32;8.80;;;8.30;99.90;;;;;;5091929;28;20020;-82
2022/09/20 05:00:14;;;;;;;11.90;9.35;;;8.30;99.90;;;;;;5092920;28;20555;-81
2022/09/20 05:02:43;;;;;;;12.23;9.75;;;8.30;99.90;;;;;;5093167;28;20048;-81
2022/09/20 05:05:34;;;;;;;14.38;11.40;;;8.30;99.90;;;;;;5091504;28;20114;-81
2022/09/20 05:08:00;;;;;;;12.48;9.15;;;8.30;99.90;;;;;;5087372;28;20036;-82
2022/09/20 05:11:05;;;;;;;13.48;9.18;;;8.30;99.90;;;;;;5090903;28;20024;-86
2022/09/20 05:13:54;;;;;;;11.52;9.18;;;8.30;99.90;;;;;;5105927;28;20020;-82
2022/09/20 05:16:31;;;;;;;13.98;9.80;;;8.30;99.90;;;;;;5096414;28;20020;-82
2022/09/20 05:19:15;;;;;;;13.35;9.73;;;8.30;99.90;;;;;;5093963;28;20086;-87
2022/09/20 05:22:05;;;;;;;12.07;9.30;;;8.30;99.90;;;;;;5094613;28;20020;-83
2022/09/20 05:24:46;;;;;;;15.95;10.38;;;8.30;99.90;;;;;;5096246;28;20390;-84
2022/09/20 05:27:39;;;;;;;17.38;11.60;;;8.30;99.90;;;;;;5095697;28;20024;-84
2022/09/20 05:30:07;;;;;;;18.02;11.57;;;8.40;99.90;;;;;;5094185;28;20020;-87
2022/09/20 05:32:43;;;;;;;15.02;10.43;;;8.30;99.90;;;;;;5096017;28;20397;-89
2022/09/20 05:35:24;;;;;;;17.73;11.15;;;8.30;99.90;;;;;;5092088;28;20032;-84
2022/09/20 05:38:10;;;;;;;16.73;11.38;;;8.30;99.90;;;;;;5096514;28;20035;-84
2022/09/20 05:41:04;;;;;;;17.23;10.43;;;8.40;99.90;;;;;;5094327;28;20119;-83
2022/09/20 05:43:38;;;;;;;17.05;10.18;;;8.40;99.90;;;;;;5095773;28;20056;-84
2022/09/20 05:46:21;;;;;;;14.88;10.70;;;8.40;99.90;;;;;;5093556;28;20114;-89
2022/09/20 05:49:13;;;;;;;16.92;11.05;;;8.40;99.90;;;;;;5093017;28;20028;-87
2022/09/20 05:52:01;;;;;;;19.27;12.07;;;8.30;99.90;;;;;;5095475;28;20107;-84
2022/09/20 05:54:45;;;;;;;15.20;11.07;;;8.40;99.90;;;;;;5092706;28;20032;-86
2022/09/20 05:57:34;;;;;;;13.85;9.13;;;8.40;99.90;;;;;;5091390;28;20385;-82
2022/09/20 06:00:18;;;;;;;14.88;9.13;;;8.40;99.90;;;;;;5094841;28;20071;-82
2022/09/20 06:03:04;;;;;;;13.00;9.65;;;8.40;99.90;;;;;;5094662;28;20024;-83
2022/09/20 06:06:03;;;;;;;14.70;9.82;;;8.40;99.90;;;;;;5094981;28;20024;-84
2022/09/20 06:08:56;;;;;;;14.05;9.65;;;8.40;99.90;;;;;;5086060;28;20048;-89
2022/09/20 06:11:37;;;;;;;16.25;9.13;;;8.40;99.90;;;;;;5090126;28;20016;-84
2022/09/20 06:14:20;;;;;;;14.55;9.68;;;8.40;99.90;;;;;;5090831;28;20090;-88
2022/09/20 06:17:04;;;;;;;18.92;9.55;;;8.40;99.90;;;;;;5086110;28;20012;-84
2022/09/20 06:19:35;;;;;;;15.82;9.57;;;8.40;99.90;;;;;;5093380;28;20105;-83
2022/09/20 06:22:22;;;;;;;19.63;10.60;;;8.40;99.90;;;;;;5092325;28;20028;-84
2022/09/20 06:25:09;;;;;;;14.98;9.25;;;8.50;99.90;;;;;;5091476;28;20373;-84
2022/09/20 06:27:57;;;;;;;12.70;9.00;;;8.50;99.90;;;;;;5081321;28;20024;-90
2022/09/20 06:30:30;;;;;;;14.70;10.35;;;8.60;99.90;;;;;;5094186;28;20024;-84
2022/09/20 06:33:09;;;;;;;13.88;9.70;;;8.60;99.90;;;;;;5092334;28;20422;-83
2022/09/20 06:35:41;;;;;;;14.82;9.30;;;8.70;99.90;;;;;;5084601;28;20055;-84
2022/09/20 06:43:48;;;;;;;13.40;7.80;;;8.90;99.90;;;;;;5095987;28;20081;-84
2022/09/20 06:46:14;;;;;;;14.70;9.40;;;8.90;99.90;;;;;;5094836;28;20019;-83
2022/09/20 06:48:40;;;;;;;26.58;13.52;;;9.00;99.90;;;;;;5093917;28;20024;-86
2022/09/20 06:51:08;;;;;;;29.10;14.70;;;9.00;99.90;;;;;;5095667;28;20107;-86
2022/09/20 06:53:38;;;;;;;25.48;12.98;;;9.10;99.90;;;;;;5094052;28;20020;-83
2022/09/20 06:56:06;;;;;;;20.95;11.60;;;9.10;99.90;;;;;;5092445;28;20053;-87
2022/09/20 06:58:31;;;;;;;12.52;8.52;;;9.20;99.90;;;;;;5093691;28;20144;-87
2022/09/20 07:00:57;;;;;;;11.45;7.85;;;9.20;99.90;;;;;;5093269;28;20473;-87
2022/09/20 07:03:23;;;;;;;15.38;8.95;;;9.40;99.90;;;;;;5092019;28;20046;-87
2022/09/20 07:05:48;;;;;;;9.20;6.75;;;9.50;99.90;;;;;;5094264;28;20044;-87
2022/09/20 07:08:15;;;;;;;11.63;7.43;;;9.40;99.90;;;;;;5093115;28;20473;-83
2022/09/20 07:10:42;;;;;;;12.20;8.25;;;9.60;99.90;;;;;;5093381;28;20428;-88
2022/09/20 07:13:10;;;;;;;8.23;7.22;;;9.80;99.90;;;;;;5093656;28;20026;-83
2022/09/20 07:15:36;;;;;;;50.90;17.52;;;9.80;99.90;;;;;;5095004;28;20020;-83
2022/09/20 07:18:02;;;;;;;12.55;9.15;;;9.80;99.90;;;;;;5093857;28;20035;-87
2022/09/20 07:20:28;;;;;;;33.15;12.95;;;9.90;99.90;;;;;;5093407;28;20032;-83
2022/09/20 07:22:53;;;;;;;26.08;10.30;;;9.90;99.90;;;;;;5094748;28;20020;-87
2022/09/20 07:25:20;;;;;;;8.93;6.22;;;10.00;99.90;;;;;;5093678;28;20027;-84
2022/09/20 07:27:49;;;;;;;11.30;6.90;;;10.00;99.90;;;;;;5094706;28;20488;-87
2022/09/20 07:30:15;;;;;;;9.55;6.78;;;10.00;99.90;;;;;;5093221;28;20058;-83
2022/09/20 07:32:41;;;;;;;11.57;6.50;;;10.10;99.90;;;;;;5093289;28;20489;-87
2022/09/20 07:35:08;;;;;;;7.97;6.05;;;10.00;99.90;;;;;;5093813;28;20050;-84
2022/09/20 07:37:35;;;;;;;9.00;6.18;;;9.90;99.90;;;;;;5094434;28;20047;-84
2022/09/20 07:40:01;;;;;;;10.10;6.70;;;9.90;99.90;;;;;;5094442;28;20040;-84
2022/09/20 07:42:28;;;;;;;8.90;6.00;;;10.00;99.90;;;;;;5074394;28;20478;-83
2022/09/20 07:44:54;;;;;;;8.18;6.07;;;10.10;99.90;;;;;;5072818;28;20424;-87
2022/09/20 07:47:22;;;;;;;5.85;5.25;;;10.10;99.90;;;;;;5072698;28;20428;-87
2022/09/20 07:49:47;;;;;;;8.02;5.90;;;10.20;99.90;;;;;;5072787;28;20108;-84
2022/09/20 07:52:13;;;;;;;6.00;4.80;;;10.20;99.90;;;;;;5073770;28;20047;-83
2022/09/20 07:54:39;;;;;;;6.18;5.28;;;10.20;99.90;;;;;;5072705;28;20504;-87
2022/09/20 07:57:04;;;;;;;7.45;5.38;;;10.10;99.90;;;;;;5073813;28;20029;-83
2022/09/20 07:59:30;;;;;;;8.10;6.38;;;10.00;99.90;;;;;;5073670;28;20051;-84
2022/09/20 08:01:57;;;;;;;8.00;6.03;;;10.10;99.90;;;;;;5073670;28;20027;-83
2022/09/20 08:04:23;;;;;;;12.43;6.25;;;10.00;99.90;;;;;;5073534;28;20054;-83
2022/09/20 08:06:49;;;;;;;9.18;5.93;;;9.90;99.90;;;;;;5073668;28;20501;-83
2022/09/20 08:09:14;;;;;;;9.02;6.10;;;9.90;99.90;;;;;;5078325;28;20091;-84
2022/09/20 08:11:42;;;;;;;7.00;5.57;;;9.90;99.90;;;;;;5093947;28;20020;-83
2022/09/20 08:14:15;;;;;;;7.90;6.07;;;9.80;99.90;;;;;;5093750;28;20163;-86
2022/09/20 08:16:46;;;;;;;22.48;9.60;;;9.80;99.90;;;;;;5092664;28;20031;-87
2022/09/20 08:19:18;;;;;;;9.77;6.55;;;9.80;99.90;;;;;;5092292;28;20036;-87
2022/09/20 08:21:44;;;;;;;7.27;5.87;;;9.80;99.90;;;;;;5092489;28;20157;-87
2022/09/20 08:24:10;;;;;;;9.88;5.78;;;9.80;99.90;;;;;;5093478;28;20517;-83
2022/09/20 08:26:35;;;;;;;8.50;6.75;;;9.70;99.90;;;;;;5092372;28;20504;-86
2022/09/20 08:29:04;;;;;;;9.48;6.68;;;9.80;99.90;;;;;;5093570;28;20032;-83
2022/09/20 08:31:33;;;;;;;9.77;6.78;;;9.80;99.90;;;;;;5092184;28;20182;-87
2022/09/20 08:34:02;;;;;;;7.80;6.50;;;10.00;99.90;;;;;;5092113;28;20016;-87
2022/09/20 08:36:29;;;;;;;9.23;6.63;;;10.00;99.90;;;;;;5093443;28;20115;-87
2022/09/20 08:38:56;;;;;;;7.60;6.20;;;10.10;99.90;;;;;;5093378;28;20028;-87
2022/09/20 08:41:29;;;;;;;9.02;5.85;;;10.30;99.90;;;;;;5083874;28;20103;-83
2022/09/20 08:44:11;;;;;;;7.32;6.40;;;10.50;99.90;;;;;;5073262;28;20056;-83
2022/09/20 08:47:01;;;;;;;6.30;5.07;;;10.50;99.90;;;;;;5073056;28;20162;-87
2022/09/20 08:49:28;;;;;;;7.82;6.07;;;10.60;99.90;;;;;;5073242;28;20477;-83
2022/09/20 08:51:56;;;;;;;8.05;5.70;;;10.60;99.90;;;;;;5073120;28;20102;-87
2022/09/20 08:54:24;;;;;;;9.02;5.70;;;10.70;99.90;;;;;;5072903;28;20025;-87
2022/09/20 08:56:50;;;;;;;9.48;5.45;;;10.50;99.90;;;;;;5091237;28;20119;-83
2022/09/20 08:59:19;;;;;;;6.35;5.13;;;10.50;99.90;;;;;;5091800;28;20047;-83
2022/09/20 09:01:49;;;;;;;10.75;6.25;;;10.30;99.90;;;;;;5091881;28;20107;-83
2022/09/20 09:04:23;;;;;;;8.13;5.68;;;10.20;99.90;;;;;;5093028;28;20074;-84
2022/09/20 09:06:51;;;;;;;6.85;5.15;;;10.30;99.90;;;;;;5092014;28;20398;-87
2022/09/20 09:09:23;;;;;;;7.68;5.80;;;10.20;99.90;;;;;;5093113;28;20024;-87
2022/09/20 09:11:50;;;;;;;8.85;5.75;;;10.30;99.90;;;;;;5093187;28;20028;-87
2022/09/20 09:14:49;;;;;;;5.82;4.68;;;10.40;99.90;;;;;;5091664;28;20059;-83
2022/09/20 09:17:34;;;;;;;7.47;5.70;;;10.40;99.90;;;;;;5091868;28;20103;-86
2022/09/20 09:20:26;;;;;;;7.43;5.70;;;10.50;99.90;;;;;;5091833;28;20473;-87
2022/09/20 09:23:03;;;;;;;5.47;4.47;;;11.00;99.90;;;;;;5087995;28;20485;-86
2022/09/20 09:25:33;;;;;;;5.53;4.32;;;11.00;99.90;;;;;;5092978;28;20111;-86
2022/09/20 09:27:59;;;;;;;6.45;4.47;;;11.10;99.90;;;;;;5093166;28;20024;-82
2022/09/20 09:30:25;;;;;;;4.28;3.83;;;11.30;99.90;;;;;;5091268;28;20116;-85
2022/09/20 09:32:52;;;;;;;4.45;3.95;;;11.60;99.90;;;;;;5091782;28;20024;-85
2022/09/20 09:35:22;;;;;;;5.15;4.65;;;11.80;99.90;;;;;;5091639;28;20062;-85
2022/09/20 09:37:59;;;;;;;4.30;3.90;;;11.90;99.90;;;;;;5093049;28;20469;-82
2022/09/20 09:40:26;;;;;;;4.07;3.67;;;12.10;99.90;;;;;;5089392;28;20432;-85
2022/09/20 09:42:57;;;;;;;4.72;3.58;;;12.50;99.90;;;;;;5072706;28;20021;-79
2022/09/20 09:45:37;;;;;;;3.97;3.35;;;12.60;99.90;;;;;;5071359;28;20047;-82
2022/09/20 09:48:22;;;;;;;6.38;3.40;;;12.80;99.90;;;;;;5072657;28;20406;-78
2022/09/20 09:50:48;;;;;;;7.95;3.30;;;13.10;99.90;;;;;;5071361;28;20434;-82
2022/09/20 09:53:23;;;;;;;3.50;3.20;;;13.00;99.90;;;;;;5071299;28;20040;-83
2022/09/20 09:56:05;;;;;;;3.55;2.95;;;12.80;99.90;;;;;;5071192;28;20021;-79
2022/09/20 09:59:09;;;;;;;3.97;3.67;;;12.70;99.90;;;;;;5073112;28;20024;-82
2022/09/20 10:01:43;;;;;;;5.22;4.13;;;12.50;99.90;;;;;;5074915;28;20020;-79
2022/09/20 10:04:28;;;;;;;6.18;4.32;;;12.20;99.90;;;;;;5075932;28;20032;-78
2022/09/20 10:07:07;;;;;;;4.95;4.40;;;11.60;99.90;;;;;;5076032;28;20044;-83
2022/09/20 10:10:04;;;;;;;8.63;5.15;;;11.50;99.90;;;;;;5082492;28;20035;-83
2022/09/20 10:12:56;;;;;;;5.68;5.18;;;11.30;99.90;;;;;;5089404;28;20402;-79
2022/09/20 10:15:31;;;;;;;7.22;4.60;;;11.30;99.90;;;;;;5094802;28;20497;-83
2022/09/20 10:18:16;;;;;;;11.57;6.15;;;11.10;99.90;;;;;;5094873;28;20031;-83
2022/09/20 10:20:59;;;;;;;7.43;5.78;;;11.20;99.90;;;;;;5095760;28;20036;-79
2022/09/20 10:23:50;;;;;;;6.78;5.55;;;11.30;99.90;;;;;;5094376;28;20020;-79
2022/09/20 10:26:44;;;;;;;6.32;5.72;;;11.30;99.90;;;;;;5094527;28;20115;-79
2022/09/20 10:29:26;;;;;;;5.95;5.45;;;11.10;99.90;;;;;;5094641;28;20481;-84
2022/09/20 10:31:56;;;;;;;6.43;5.43;;;11.10;99.90;;;;;;5094569;28;20060;-83
2022/09/20 10:34:40;;;;;;;6.40;5.80;;;11.30;99.90;;;;;;5094274;28;20081;-80
2022/09/20 10:37:23;;;;;;;5.65;4.75;;;11.60;99.90;;;;;;5094375;28;20492;-83
2022/09/20 10:40:14;;;;;;;5.63;5.03;;;11.60;99.90;;;;;;5094300;28;20032;-82
2022/09/20 10:45:48;;;;;;;4.72;4.25;;;11.80;99.90;;;;;;5075553;28;20044;-80
2022/09/20 10:48:43;;;;;;;5.60;4.22;;;11.70;99.90;;;;;;5075080;28;20029;-79
2022/09/20 10:51:43;;;;;;;5.03;4.30;;;11.80;99.90;;;;;;5073879;28;20099;-83
2022/09/20 10:54:25;;;;;;;4.95;4.45;;;11.90;99.90;;;;;;5073696;28;20498;-83
2022/09/20 10:57:08;;;;;;;6.50;4.23;;;11.70;99.90;;;;;;5073838;28;20051;-79
2022/09/20 11:00:06;;;;;;;4.40;4.00;;;11.80;99.90;;;;;;5073772;28;20294;-83
2022/09/20 11:02:58;;;;;;;3.65;3.35;;;11.80;99.90;;;;;;5035642;28;20053;-83
2022/09/20 11:05:38;;;;;;;6.97;4.70;;;11.70;99.90;;;;;;5074962;28;20017;-83
2022/09/20 11:08:04;;;;;;;3.30;2.90;;;11.90;99.90;;;;;;5074883;28;20024;-83
2022/09/20 11:10:57;;;;;;;6.13;3.67;;;11.90;99.90;;;;;;5090698;28;20353;-79
2022/09/20 11:13:35;;;;;;;3.45;2.92;;;11.90;99.90;;;;;;5093706;28;20382;-83
2022/09/20 11:16:29;;;;;;;3.40;3.05;;;11.80;99.90;;;;;;5094913;28;20376;-80
2022/09/20 11:19:19;;;;;;;5.00;3.45;;;11.70;99.90;;;;;;5094937;28;20059;-83
2022/09/20 11:22:06;;;;;;;3.53;3.22;;;11.70;99.90;;;;;;5093530;28;20435;-83
2022/09/20 11:24:50;;;;;;;4.95;3.45;;;11.70;99.90;;;;;;5093505;28;20448;-79
2022/09/20 11:27:43;;;;;;;3.78;3.35;;;11.60;99.90;;;;;;5093401;28;20097;-83
2022/09/20 11:30:19;;;;;;;6.25;4.10;;;11.90;99.90;;;;;;5093248;28;20016;-83
2022/09/20 11:32:59;;;;;;;6.35;5.20;;;12.00;99.90;;;;;;5093275;28;20047;-79
2022/09/20 11:35:49;;;;;;;2.47;2.28;;;12.10;99.90;;;;;;5094779;28;20394;-85
2022/09/20 11:39:00;;;;;;;13.57;8.25;;;11.60;99.90;;;;;;5094494;28;20036;-80
2022/09/20 11:41:30;;;;;;;8.23;5.68;;;11.00;99.90;;;;;;5078298;28;20048;-85
2022/09/20 11:44:03;;;;;;;12.45;6.90;;;10.80;99.90;;;;;;5072907;28;20087;-84
2022/09/20 11:46:33;;;;;;;5.43;4.15;;;10.50;99.90;;;;;;5073920;28;20027;-85
2022/09/20 11:49:04;;;;;;;2.47;2.28;;;10.40;99.90;;;;;;5072820;28;20063;-85
2022/09/20 11:51:45;;;;;;;4.60;2.00;;;10.30;99.90;;;;;;5074098;28;20024;-85
2022/09/20 11:54:22;;;;;;;2.72;2.25;;;10.40;99.90;;;;;;5073890;28;20024;-81
2022/09/20 11:56:50;;;;;;;2.35;2.15;;;10.40;99.90;;;;;;5072577;28;20173;-81
2022/09/20 11:59:36;;;;;;;3.55;2.13;;;10.50;99.90;;;;;;5072609;28;20078;-85
2022/09/20 12:02:11;;;;;;;2.35;2.20;;;10.50;99.90;;;;;;5073858;28;20035;-85
2022/09/20 12:04:41;;;;;;;3.30;2.65;;;10.60;99.90;;;;;;5072585;28;20025;-81
2022/09/20 12:07:28;;;;;;;2.53;2.28;;;10.70;99.90;;;;;;5072398;28;20035;-81
2022/09/20 12:10:00;;;;;;;2.88;2.47;;;10.90;99.90;;;;;;5085298;28;20016;-85
2022/09/20 12:12:26;;;;;;;2.47;2.10;;;10.90;99.90;;;;;;5093704;28;20459;-85
2022/09/20 12:14:57;;;;;;;2.50;2.30;;;11.00;99.90;;;;;;5093873;28;20035;-85
2022/09/20 12:17:44;;;;;;;2.83;2.20;;;11.20;99.90;;;;;;5092415;28;20020;-85
2022/09/20 12:20:37;;;;;;;2.60;2.40;;;11.40;99.90;;;;;;5092382;28;20032;-85
2022/09/20 12:23:42;;;;;;;2.65;1.98;;;11.60;99.90;;;;;;5091928;28;20028;-81
2022/09/20 12:26:09;;;;;;;3.83;2.45;;;11.70;99.90;;;;;;5031350;28;20057;-85
2022/09/20 12:28:38;;;;;;;2.90;2.60;;;11.70;99.90;;;;;;5031524;28;20033;-85
2022/09/20 12:31:24;;;;;;;2.47;2.03;;;11.80;99.90;;;;;;5051831;28;20157;-85
2022/09/20 12:34:08;;;;;;;3.40;2.03;;;11.80;99.90;;;;;;5092368;28;20076;-85
2022/09/20 12:36:38;;;;;;;;;;;11.90;99.90;;;;;;5092830;28;20039;-85
2022/09/20 12:39:10;;;;;;;2.47;2.28;;;12.10;99.90;;;;;;5092174;28;19999;-81
2022/09/20 12:42:00;;;;;;;2.53;1.77;;;12.10;99.90;;;;;;5079272;28;20052;-81
2022/09/20 12:44:47;;;;;;;2.67;1.48;;;11.90;99.90;;;;;;5073167;28;20032;-84
2022/09/20 12:47:18;;;;;;;1.90;1.48;;;11.60;99.90;;;;;;5071889;28;20029;-85
2022/09/20 12:52:49;;;;;;;1.75;1.23;;;11.50;99.90;;;;;;5073068;28;20042;-85
2022/09/20 12:55:45;;;;;;;1.95;1.38;;;11.50;99.90;;;;;;5071934;28;20043;-81
2022/09/20 12:58:14;;;;;;;3.10;1.75;;;11.50;99.90;;;;;;5071785;28;20108;-85
2022/09/20 13:00:56;;;;;;;1.92;1.83;;;11.50;99.90;;;;;;5072950;28;20044;-81
2022/09/20 13:03:35;;;;;;;7.87;2.57;;;11.70;99.90;;;;;;5071629;28;20025;-85
2022/09/20 13:06:13;;;;;;;5.07;3.33;;;12.00;99.90;;;;;;5073077;28;20021;-85
2022/09/20 13:09:01;;;;;;;4.25;3.35;;;12.10;99.90;;;;;;5072976;28;20119;-81
2022/09/20 13:11:43;;;;;;;5.43;3.40;;;12.20;99.90;;;;;;5093245;28;20039;-81
2022/09/20 13:14:21;;;;;;;2.80;2.60;;;12.10;99.90;;;;;;5092992;28;20019;-85
2022/09/20 13:16:58;;;;;;;3.92;3.00;;;11.90;99.90;;;;;;5091733;28;20062;-81
2022/09/20 13:19:45;;;;;;;3.92;3.10;;;11.80;99.90;;;;;;5091788;28;20032;-81
2022/09/20 13:22:13;;;;;;;7.65;4.22;;;11.80;99.90;;;;;;5091660;28;20020;-81
2022/09/20 13:24:46;;;;;;;3.75;3.42;;;11.60;99.90;;;;;;5091741;28;20103;-85
2022/09/20 13:27:14;;;;;;;;;;;11.70;99.90;;;;;;5093321;28;20027;-85
2022/09/20 13:29:43;;;;;;;4.10;3.70;;;11.70;99.90;;;;;;5091788;28;19911;-85
2022/09/20 13:32:21;;;;;;;6.90;2.63;;;11.80;99.90;;;;;;5091456;28;20040;-81
2022/09/20 13:35:07;;;;;;;2.47;2.28;;;11.80;99.90;;;;;;5095491;28;20093;-85
2022/09/20 13:37:33;;;;;;;3.25;2.30;;;11.80;99.90;;;;;;5095506;28;20020;-81
2022/09/20 13:39:59;;;;;;;3.67;2.88;;;11.90;99.90;;;;;;5095456;28;20024;-85
2022/09/20 13:42:28;;;;;;;5.95;2.90;;;11.90;99.90;;;;;;5075107;28;20015;-85
2022/09/20 13:44:57;;;;;;;6.32;3.40;;;12.00;99.90;;;;;;5075160;28;20031;-85
2022/09/20 13:47:27;;;;;;;6.18;4.30;;;11.90;99.90;;;;;;5075045;28;20119;-81
2022/09/20 13:49:59;;;;;;;4.35;3.65;;;11.90;99.90;;;;;;5075077;28;20033;-81
2022/09/20 13:52:28;;;;;;;4.78;3.13;;;11.90;99.90;;;;;;5076157;28;20486;-85
2022/09/20 13:54:54;;;;;;;3.10;2.55;;;11.90;99.90;;;;;;5076318;28;20028;-81
2022/09/20 13:57:30;;;;;;;3.35;2.25;;;12.00;99.90;;;;;;5074956;28;20102;-85